NCAR-RAP Real-Time Weather Data

Output produced by METARs form (08 May 2021  00:27 UTC)
found at http://weather.rap.ucar.edu/surface/
 
KGSP 072353Z VRB04KT 10SM CLR 17/M03 A2999 RMK AO2 SLP150 T01671028 10200 20167 53007
KGSP 072253Z 35010G17KT 10SM CLR 18/M04 A2998 RMK AO2 SLP147 T01831044
KGSP 072153Z 34008G15KT 10SM CLR 19/M04 A2997 RMK AO2 SLP143 T01941044
KGSP 072053Z 34009G16KT 10SM CLR 19/M04 A2997 RMK AO2 SLP143 T01941044 55001
KGSP 071953Z 33011G19KT 10SM CLR 19/M04 A2997 RMK AO2 SLP143 T01941039
KGSP 071853Z 33012G24KT 10SM CLR 19/M02 A2998 RMK AO2 PK WND 01027/1815 SLP145 T01941022
KGSP 071753Z 35009G15KT 320V020 FEW070 20/01 A2998 RMK AO2 SLP144 T02000006 10200 20133 50001 $
KGSP 071735Z 32009G19KT 7SM FEW070 19/01 A2998 RMK AO2 T01890006
KGSP 071727Z 33008G17KT 2 1/2SM HZ SCT070 19/01 A2998 RMK AO2 T01890006
KGSP 071653Z VRB05KT 10SM OVC070 17/01 A2998 RMK AO2 SLP146 T01720011
KGSP 071634Z COR 03004KT 10SM BKN070 18/01 A2998 RMK AO2 T01780006
KGSP 071631Z VRB05KT 1 1/2SM BKN070 18/01 A2998 RMK AO2 VIS 1/2V5 T01780011
KGSP 071623Z VRB05KT 1/2SM BKN070 19/01 A2998 RMK AO2 VIS 1/4V4 T01890011
KGSP 071616Z 30007KT 1 1/4SM FEW070 19/01 A2999 RMK AO2 VIS 1/4V5 T01890011
KGSP 071553Z 31008KT 10SM CLR 18/01 A2998 RMK AO2 SLP147 T01830006
KGSP 071510Z 32008G17KT 300V360 5SM CLR 17/01 A2997 RMK AO2 T01720006
KGSP 071500Z 34010G19KT 1 1/2SM CLR 17/02 A2997 RMK AO2 VIS 1/4V5 T01720017
KGSP 071453Z VRB06G17KT 10SM CLR 17/02 A2997 RMK AO2 SLP143 T01670017 53010
KGSP 071434Z 33008G18KT 300V360 10SM CLR 17/02 A2997 RMK AO2 T01720017
KGSP 071427Z 32010G22KT 1 3/4SM HZ CLR 17/02 A2996 RMK AO2 T01670022
KGSP 071353Z 34008G15KT 10SM CLR 16/04 A2996 RMK AO2 SLP139 T01610039
KGSP 071253Z 29007KT 10SM CLR 15/04 A2995 RMK AO2 SLP136 T01500039
KGSP 071153Z 33004KT 10SM CLR 13/04 A2994 RMK AO2 SLP133 T01330044 10133 20100 53012
KGSP 071053Z 30004KT 10SM CLR 12/03 A2991 RMK AO2 SLP124 T01170033
KGSP 070953Z AUTO 00000KT 10SM FEW100 12/03 A2990 RMK AO2 SLP119 T01220033
KGSP 070853Z AUTO 35003KT 10SM OVC100 13/03 A2990 RMK AO2 SLP120 T01280028 55008